createdAt,value
2019-04-23T00:02:44.432Z,12.30
2019-04-23T00:05:21.150Z,12.28
2019-04-23T00:07:49.826Z,12.25
2019-04-23T00:10:19.467Z,12.17
2019-04-23T00:12:47.842Z,12.10
2019-04-23T00:15:30.853Z,12.14
2019-04-23T00:17:48.904Z,11.99
2019-04-23T00:23:09.584Z,11.95
2019-04-23T00:26:02.626Z,11.99
2019-04-23T00:28:21.641Z,11.90
2019-04-23T00:30:54.981Z,11.82
2019-04-23T00:35:53.344Z,11.90
2019-04-23T00:38:26.516Z,11.86
2019-04-23T00:40:55.153Z,11.79
2019-04-23T00:43:24.354Z,11.66
2019-04-23T00:45:48.855Z,11.59
2019-04-23T00:48:28.232Z,11.62
2019-04-23T00:53:22.101Z,11.63
2019-04-23T00:56:05.610Z,11.47
2019-04-23T00:58:32.373Z,11.50
2019-04-23T01:00:57.936Z,11.52
2019-04-23T01:03:21.447Z,11.43
2019-04-23T01:05:54.881Z,11.47
2019-04-23T01:13:39.589Z,11.40
2019-04-23T01:20:59.007Z,11.14
2019-04-23T01:23:53.828Z,11.18
2019-04-23T01:26:35.594Z,11.12
2019-04-23T01:29:12.594Z,11.11
2019-04-23T01:31:41.429Z,11.03
2019-04-23T01:34:21.855Z,11.08
2019-04-23T01:36:48.754Z,10.98
2019-04-23T01:41:52.327Z,11.03
2019-04-23T01:44:27.849Z,11.09
2019-04-23T01:46:49.300Z,11.04
2019-04-23T01:49:20.789Z,10.99
2019-04-23T01:51:55.770Z,10.89
2019-04-23T01:54:24.124Z,10.77
2019-04-23T01:56:49.121Z,10.76
2019-04-23T01:59:22.277Z,10.79
2019-04-23T02:01:50.405Z,10.77
2019-04-23T02:04:24.396Z,10.63
2019-04-23T02:06:50.484Z,10.62
2019-04-23T02:09:25.484Z,10.66
2019-04-23T02:11:53.830Z,10.55
2019-04-23T02:14:20.949Z,10.67
2019-04-23T02:16:50.001Z,10.47
2019-04-23T02:19:33.340Z,10.50
2019-04-23T02:22:17.502Z,10.42
2019-04-23T02:24:47.684Z,10.47
2019-04-23T02:27:22.479Z,10.44
2019-04-23T02:30:20.870Z,10.50
2019-04-23T02:32:34.046Z,10.43
2019-04-23T02:34:57.801Z,10.36
2019-04-23T02:37:35.602Z,10.30
2019-04-23T02:40:01.914Z,10.32
2019-04-23T02:42:43.277Z,10.35
2019-04-23T02:44:58.185Z,10.35
2019-04-23T02:47:46.637Z,10.17
2019-04-23T02:50:09.245Z,10.22
2019-04-23T02:55:03.772Z,10.14
2019-04-23T02:57:29.770Z,10.13
2019-04-23T03:05:00.820Z,10.12
2019-04-23T03:07:38.964Z,10.08
2019-04-23T03:10:03.317Z,10.09
2019-04-23T03:12:37.734Z,9.92
2019-04-23T03:15:29.736Z,9.91
2019-04-23T03:21:19.074Z,9.87
2019-04-23T03:23:44.820Z,10.02
2019-04-23T03:32:48.434Z,9.80
2019-04-23T03:42:12.324Z,9.70
2019-04-23T03:43:41.145Z,9.69
2019-04-23T03:48:46.945Z,9.65
2019-04-23T03:51:16.300Z,9.57
2019-04-23T03:54:21.804Z,9.49
2019-04-23T03:56:41.604Z,9.53
2019-04-23T03:58:49.391Z,9.64
2019-04-23T04:07:08.493Z,9.69
2019-04-23T04:09:03.471Z,9.58
2019-04-23T04:14:01.473Z,9.74
2019-04-23T04:18:54.250Z,9.62
2019-04-23T04:24:05.380Z,9.82
2019-04-23T04:26:37.796Z,9.75
2019-04-23T04:29:19.446Z,9.70
2019-04-23T04:31:30.986Z,9.76
2019-04-23T04:36:32.598Z,9.77
2019-04-23T04:38:57.204Z,9.88
2019-04-23T04:46:50.669Z,9.77
2019-04-23T04:51:37.623Z,9.99
2019-04-23T04:54:13.912Z,10.05
2019-04-23T04:59:03.819Z,9.98
2019-04-23T05:01:28.765Z,10.18
2019-04-23T05:04:02.246Z,10.12
2019-04-23T05:06:44.396Z,10.24
2019-04-23T05:09:19.549Z,10.19
2019-04-23T05:14:26.501Z,10.33
2019-04-23T05:16:33.727Z,10.43
2019-04-23T05:21:46.604Z,10.55
2019-04-23T05:24:08.761Z,10.55
2019-04-23T05:31:32.549Z,10.67
2019-04-23T05:36:43.815Z,10.88
2019-04-23T05:39:15.848Z,10.84
2019-04-23T05:41:40.109Z,11.07
2019-04-23T05:44:17.147Z,11.01
2019-04-23T05:46:36.677Z,11.00
2019-04-23T05:49:13.680Z,11.19
2019-04-23T05:51:50.413Z,11.26
2019-04-23T05:54:12.574Z,11.23
2019-04-23T05:56:55.257Z,11.24
2019-04-23T06:01:58.836Z,11.32
2019-04-23T06:04:17.599Z,11.59
2019-04-23T06:07:04.705Z,11.51
2019-04-23T06:09:20.427Z,11.56
2019-04-23T06:14:35.293Z,11.73
2019-04-23T06:16:49.865Z,11.78
2019-04-23T06:19:30.501Z,11.75
2019-04-23T06:26:51.710Z,12.08
2019-04-23T06:31:49.231Z,12.13
2019-04-23T06:34:21.752Z,12.35
2019-04-23T06:36:51.329Z,12.41
2019-04-23T06:39:26.417Z,12.47
2019-04-23T06:41:55.019Z,12.40
2019-04-23T06:49:37.592Z,12.51
2019-04-23T06:54:35.866Z,12.72
2019-04-23T06:57:09.018Z,12.80
2019-04-23T06:59:30.737Z,12.91
2019-04-23T07:02:08.397Z,13.13
2019-04-23T07:04:38.178Z,13.40
2019-04-23T07:09:26.220Z,13.26
2019-04-23T07:12:07.689Z,13.47
2019-04-23T07:14:44.547Z,13.55
2019-04-23T07:17:21.300Z,13.56
2019-04-23T07:22:14.668Z,13.69
2019-04-23T07:24:43.700Z,13.90
2019-04-23T07:27:11.235Z,14.16
2019-04-23T07:29:43.496Z,14.39
2019-04-23T07:32:23.726Z,15.05
2019-04-23T07:34:41.482Z,15.23
2019-04-23T07:37:15.680Z,15.18
2019-04-23T07:40:22.919Z,15.63
2019-04-23T07:42:55.106Z,15.60
2019-04-23T07:45:49.431Z,15.86
2019-04-23T07:53:31.259Z,16.52
2019-04-23T07:58:25.791Z,17.78
2019-04-23T08:05:42.544Z,16.78
2019-04-23T08:08:16.999Z,16.25
2019-04-23T08:11:30.770Z,16.93
2019-04-23T08:16:19.603Z,17.73
2019-04-23T08:18:48.048Z,18.33
2019-04-23T08:21:13.145Z,18.30
2019-04-23T08:24:10.316Z,17.96
2019-04-23T08:27:10.052Z,17.98
2019-04-23T08:29:54.423Z,19.34
2019-04-23T08:32:18.617Z,19.03
2019-04-23T08:34:54.352Z,19.36
2019-04-23T08:37:25.334Z,19.57
2019-04-23T08:39:46.986Z,18.96
2019-04-23T08:48:24.365Z,19.01
2019-04-23T08:50:47.765Z,18.66
2019-04-23T08:53:31.714Z,20.04
2019-04-23T08:55:53.590Z,18.83
2019-04-23T08:58:19.164Z,18.63
2019-04-23T09:00:55.255Z,19.23
2019-04-23T09:03:25.234Z,18.53
2019-04-23T09:05:53.121Z,19.60
2019-04-23T09:08:20.383Z,19.83
2019-04-23T09:10:55.936Z,20.15
2019-04-23T09:18:20.987Z,20.44
2019-04-23T09:20:49.705Z,19.76
2019-04-23T09:23:30.877Z,19.76
2019-04-23T09:25:55.879Z,18.86
2019-04-23T09:28:38.488Z,19.74
2019-04-23T09:31:04.106Z,20.07
2019-04-23T09:33:41.370Z,19.96
2019-04-23T09:36:13.623Z,19.76
2019-04-23T09:44:45.655Z,20.54
2019-04-23T09:47:14.280Z,19.16
2019-04-23T09:49:42.460Z,20.30
2019-04-23T09:52:17.574Z,19.79
2019-04-23T09:54:52.344Z,19.46
2019-04-23T09:57:24.317Z,20.41
2019-04-23T09:59:43.068Z,21.24
2019-04-23T10:02:05.298Z,20.84
2019-04-23T10:04:31.982Z,21.51
2019-04-23T10:07:01.679Z,21.51
2019-04-23T10:09:18.827Z,21.11
2019-04-23T10:11:49.279Z,21.11
2019-04-23T10:14:18.662Z,21.13
2019-04-23T10:16:49.240Z,21.75
2019-04-23T10:19:18.978Z,22.85
2019-04-23T10:21:49.141Z,22.56
2019-04-23T10:24:19.159Z,22.57
2019-04-23T10:26:48.205Z,23.11
2019-04-23T10:29:23.724Z,22.76
2019-04-23T10:31:53.571Z,23.15
2019-04-23T10:34:23.305Z,21.86
2019-04-23T10:36:53.616Z,21.70
2019-04-23T10:39:28.376Z,22.60
2019-04-23T10:41:55.306Z,21.49
2019-04-23T10:44:35.520Z,22.17
2019-04-23T10:47:54.416Z,22.03
2019-04-23T10:53:28.342Z,22.48
2019-04-23T10:56:01.055Z,22.63
2019-04-23T11:00:53.817Z,22.74
2019-04-23T11:03:47.352Z,23.04
2019-04-23T11:05:59.115Z,23.48
2019-04-23T11:08:27.703Z,22.88
2019-04-23T11:10:58.965Z,24.66
2019-04-23T11:13:31.847Z,24.37
2019-04-23T11:16:24.783Z,22.67
2019-04-23T11:18:50.163Z,24.73
2019-04-23T11:21:05.302Z,24.64
2019-04-23T11:23:38.804Z,23.12
2019-04-23T11:26:06.989Z,24.55
2019-04-23T11:28:37.799Z,24.07
2019-04-23T11:31:25.605Z,23.90
2019-04-23T11:33:46.130Z,24.39
2019-04-23T11:36:43.613Z,24.59
2019-04-23T11:41:21.510Z,26.55
2019-04-23T11:46:39.526Z,23.86
2019-04-23T11:49:19.719Z,22.79
2019-04-23T11:53:48.224Z,22.63
2019-04-23T11:56:35.356Z,21.86
2019-04-23T11:58:45.850Z,22.17
2019-04-23T12:01:52.239Z,22.17
2019-04-23T12:04:57.433Z,21.49
2019-04-23T12:07:28.122Z,21.17
2019-04-23T12:12:31.277Z,21.96
2019-04-23T12:15:19.490Z,22.13
2019-04-23T12:22:43.520Z,22.00
2019-04-23T12:27:33.164Z,23.48
2019-04-23T12:30:08.355Z,23.06
2019-04-23T12:47:59.879Z,23.86
2019-04-23T12:52:55.679Z,24.25
2019-04-23T12:55:34.138Z,23.53
2019-04-23T12:58:03.517Z,22.89
2019-04-23T13:00:27.147Z,24.23
2019-04-23T13:03:09.769Z,24.45
2019-04-23T13:05:27.006Z,22.69
2019-04-23T13:13:09.447Z,24.25
2019-04-23T13:15:29.388Z,23.34
2019-04-23T13:20:32.151Z,23.58
2019-04-23T13:26:11.818Z,24.22
2019-04-23T13:41:17.339Z,23.70
2019-04-23T13:43:40.096Z,23.00
2019-04-23T13:46:13.704Z,23.08
2019-04-23T13:48:39.217Z,23.72
2019-04-23T13:56:25.257Z,24.21
2019-04-23T14:08:55.209Z,23.51
2019-04-23T14:13:58.583Z,23.24
2019-04-23T14:21:25.288Z,22.61
2019-04-23T14:31:38.977Z,22.61
2019-04-23T14:36:32.881Z,22.45
2019-04-23T14:38:59.582Z,22.56
2019-04-23T14:41:44.017Z,22.56
2019-04-23T14:44:10.474Z,22.29
2019-04-23T14:49:10.951Z,22.55
2019-04-23T14:54:15.677Z,23.06
2019-04-23T14:56:47.798Z,23.21
2019-04-23T15:01:40.254Z,23.17
2019-04-23T15:04:10.988Z,23.20
2019-04-23T15:06:54.831Z,23.90
2019-04-23T15:09:22.990Z,23.62
2019-04-23T15:11:59.305Z,23.21
2019-04-23T15:14:17.170Z,24.01
2019-04-23T15:19:34.989Z,23.48
2019-04-23T15:29:08.601Z,23.70
2019-04-23T15:31:55.452Z,23.66
2019-04-23T15:37:20.325Z,22.84
2019-04-23T15:44:41.937Z,23.05
2019-04-23T15:47:05.082Z,22.68
2019-04-23T15:49:26.582Z,22.96
2019-04-23T15:52:18.928Z,22.87
2019-04-23T15:54:35.709Z,22.88
2019-04-23T15:57:01.179Z,22.78
2019-04-23T15:59:34.944Z,23.01
2019-04-23T16:01:41.864Z,22.61
2019-04-23T16:04:06.103Z,22.61
2019-04-23T16:06:37.380Z,22.90
2019-04-23T16:09:28.428Z,22.89
2019-04-23T16:12:01.073Z,22.91
2019-04-23T16:14:47.924Z,22.79
2019-04-23T16:17:14.076Z,22.74
2019-04-23T16:19:59.684Z,22.55
2019-04-23T16:22:20.415Z,22.38
2019-04-23T16:25:01.110Z,22.41
2019-04-23T16:27:34.964Z,22.46
2019-04-23T16:35:28.689Z,22.03
2019-04-23T16:38:01.442Z,21.81
2019-04-23T16:40:28.952Z,21.93
2019-04-23T16:42:58.053Z,21.93
2019-04-23T16:45:31.067Z,22.00
2019-04-23T16:47:56.613Z,21.96
2019-04-23T16:50:20.847Z,22.03
2019-04-23T16:52:53.632Z,21.80
2019-04-23T16:55:24.204Z,21.97
2019-04-23T16:58:01.569Z,21.97
2019-04-23T17:03:07.923Z,21.83
2019-04-23T17:05:24.959Z,21.78
2019-04-23T17:08:27.100Z,21.78
2019-04-23T17:10:30.990Z,21.73
2019-04-23T17:18:02.423Z,21.47
2019-04-23T17:20:30.918Z,21.35
2019-04-23T17:23:07.530Z,21.06
2019-04-23T17:25:48.365Z,21.21
2019-04-23T17:30:32.398Z,21.11
2019-04-23T17:35:55.805Z,20.84
2019-04-23T17:38:24.129Z,20.59
2019-04-23T17:41:10.135Z,20.30
2019-04-23T17:43:36.352Z,20.24
2019-04-23T17:46:08.813Z,20.07
2019-04-23T17:48:35.934Z,19.92
2019-04-23T17:51:11.593Z,19.72
2019-04-23T17:53:42.527Z,19.66
2019-04-23T17:56:16.683Z,19.59
2019-04-23T17:58:40.857Z,19.50
2019-04-23T18:03:55.848Z,19.32
2019-04-23T18:08:50.851Z,19.21
2019-04-23T18:11:16.011Z,19.02
2019-04-23T18:13:50.451Z,19.05
2019-04-23T18:16:30.608Z,18.88
2019-04-23T18:19:10.045Z,18.81
2019-04-23T18:24:27.399Z,18.76
2019-04-23T18:27:04.952Z,18.59
2019-04-23T18:30:02.684Z,18.61
2019-04-23T18:37:25.744Z,18.33
2019-04-23T18:39:56.520Z,18.28
2019-04-23T18:44:55.789Z,18.06
2019-04-23T18:47:35.407Z,18.04
2019-04-23T18:49:52.977Z,17.92
2019-04-23T18:52:33.108Z,17.97
2019-04-23T18:54:55.695Z,17.97
2019-04-23T18:57:36.781Z,17.90
2019-04-23T19:00:02.545Z,17.95
2019-04-23T19:02:58.470Z,17.87
2019-04-23T19:05:30.922Z,17.87
2019-04-23T19:11:07.272Z,17.71
2019-04-23T19:13:41.834Z,17.71
2019-04-23T19:15:59.779Z,17.67
2019-04-23T19:18:40.385Z,17.57
2019-04-23T19:23:51.124Z,17.57
2019-04-23T19:26:15.794Z,17.49
2019-04-23T19:28:48.817Z,17.45
2019-04-23T19:31:26.299Z,17.39
2019-04-23T19:34:29.856Z,17.50
2019-04-23T19:39:24.658Z,17.41
2019-04-23T19:42:06.223Z,17.44
2019-04-23T19:44:27.991Z,17.38
2019-04-23T19:51:56.765Z,17.42
2019-04-23T19:59:31.553Z,17.08
2019-04-23T20:02:02.069Z,16.99
2019-04-23T20:04:34.058Z,17.05
2019-04-23T20:12:03.313Z,16.78
2019-04-23T20:14:32.405Z,16.92
2019-04-23T20:17:20.283Z,16.74
2019-04-23T20:19:37.658Z,16.69
2019-04-23T20:24:53.379Z,16.71
2019-04-23T20:30:15.512Z,16.56
2019-04-23T20:35:16.435Z,16.55
2019-04-23T20:42:49.731Z,16.59
2019-04-23T20:45:16.515Z,16.50
2019-04-23T20:50:10.666Z,16.38
2019-04-23T20:52:46.884Z,16.29
2019-04-23T20:55:51.075Z,16.27
2019-04-23T20:58:06.785Z,16.31
2019-04-23T21:05:41.847Z,16.26
2019-04-23T21:08:14.214Z,16.21
2019-04-23T21:10:55.666Z,16.26
2019-04-23T21:13:27.773Z,16.19
2019-04-23T21:15:54.649Z,16.18
2019-04-23T21:18:27.811Z,16.17
2019-04-23T21:20:54.996Z,16.26
2019-04-23T21:25:50.627Z,16.00
2019-04-23T21:33:36.822Z,15.96
2019-04-23T21:36:18.837Z,15.89
2019-04-23T21:39:15.442Z,16.06
2019-04-23T21:47:07.730Z,15.99
2019-04-23T21:51:51.158Z,15.93
2019-04-23T21:54:20.837Z,15.95
2019-04-23T21:59:22.750Z,15.91
2019-04-23T22:01:59.302Z,16.01
2019-04-23T22:06:52.970Z,15.95
2019-04-23T22:09:27.016Z,15.87
2019-04-23T22:14:26.638Z,16.07
2019-04-23T22:17:04.036Z,16.11
2019-04-23T22:19:45.551Z,16.03
2019-04-23T22:21:55.584Z,15.96
2019-04-23T22:24:46.416Z,15.81
2019-04-23T22:26:58.369Z,15.87
2019-04-23T22:29:35.956Z,15.95
2019-04-23T22:39:39.963Z,15.88
2019-04-23T22:42:22.437Z,15.74
2019-04-23T22:44:52.962Z,15.62
2019-04-23T22:49:45.272Z,15.62
2019-04-23T22:52:16.565Z,15.50
2019-04-23T22:54:51.319Z,15.34
2019-04-23T22:57:09.182Z,15.35
2019-04-23T23:00:00.889Z,15.29
2019-04-23T23:02:54.028Z,15.31
2019-04-23T23:07:59.430Z,15.17
2019-04-23T23:10:12.455Z,15.20
2019-04-23T23:12:52.759Z,15.03
2019-04-23T23:15:16.886Z,14.91
2019-04-23T23:18:02.061Z,15.13
2019-04-23T23:20:29.545Z,14.93
2019-04-23T23:22:58.472Z,14.73
2019-04-23T23:25:19.096Z,14.71
2019-04-23T23:27:57.762Z,14.63
2019-04-23T23:30:19.797Z,14.61
2019-04-23T23:32:58.153Z,14.56
2019-04-23T23:35:21.876Z,14.64
2019-04-23T23:37:54.062Z,14.56
2019-04-23T23:40:21.849Z,14.52
2019-04-23T23:43:07.200Z,14.52
2019-04-23T23:45:25.280Z,14.58
2019-04-23T23:50:25.146Z,14.45
2019-04-23T23:53:02.854Z,14.50
2019-04-23T23:55:24.994Z,14.45
2019-04-23T23:58:01.846Z,14.52
